createdAt,value
2019-03-01T00:01:21.780Z,12.40
2019-03-01T00:04:16.323Z,12.20
2019-03-01T00:07:39.173Z,12.10
2019-03-01T00:11:10.023Z,12.00
2019-03-01T00:14:46.408Z,12.00
2019-03-01T00:18:00.488Z,12.00
2019-03-01T00:21:11.979Z,11.80
2019-03-01T00:24:39.657Z,11.70
2019-03-01T00:28:04.322Z,11.70
2019-03-01T00:31:25.917Z,11.70
2019-03-01T00:34:17.260Z,11.60
2019-03-01T00:37:39.749Z,11.70
2019-03-01T00:40:24.505Z,11.70
2019-03-01T00:43:52.761Z,11.70
2019-03-01T00:46:25.172Z,11.70
2019-03-01T00:48:57.453Z,11.60
2019-03-01T00:51:30.014Z,11.60
2019-03-01T00:54:02.362Z,11.50
2019-03-01T00:56:34.822Z,11.60
2019-03-01T00:59:07.172Z,11.70
2019-03-01T01:01:39.518Z,11.80
2019-03-01T01:04:12.250Z,11.90
2019-03-01T01:06:44.797Z,12.00
2019-03-01T01:09:17.177Z,12.00
2019-03-01T01:11:49.566Z,12.10
2019-03-01T01:14:22.037Z,12.10
2019-03-01T01:16:54.440Z,12.10
2019-03-01T01:19:26.803Z,12.20
2019-03-01T01:21:59.351Z,12.20
2019-03-01T01:24:32.000Z,12.20
2019-03-01T01:27:04.406Z,12.20
2019-03-01T01:29:36.839Z,12.20
2019-03-01T01:32:09.294Z,12.20
2019-03-01T01:34:41.936Z,12.20
2019-03-01T01:37:14.312Z,12.20
2019-03-01T01:39:46.781Z,12.20
2019-03-01T01:42:20.120Z,12.30
2019-03-01T01:44:52.379Z,12.20
2019-03-01T01:47:25.556Z,12.10
2019-03-01T01:49:58.020Z,12.10
2019-03-01T01:52:30.339Z,12.00
2019-03-01T01:55:02.663Z,11.90
2019-03-01T01:57:35.467Z,11.90
2019-03-01T02:00:09.180Z,12.00
2019-03-01T02:02:42.020Z,12.00
2019-03-01T02:05:14.433Z,12.00
2019-03-01T02:07:46.830Z,12.00
2019-03-01T02:10:19.345Z,12.00
2019-03-01T02:12:52.093Z,11.90
2019-03-01T02:15:24.565Z,11.80
2019-03-01T02:17:57.179Z,11.80
2019-03-01T02:20:29.763Z,11.80
2019-03-01T02:23:02.131Z,11.80
2019-03-01T02:25:34.727Z,11.70
2019-03-01T02:28:07.329Z,11.70
2019-03-01T02:30:40.107Z,11.60
2019-03-01T02:33:12.719Z,11.50
2019-03-01T02:35:45.234Z,11.50
2019-03-01T02:38:17.555Z,11.40
2019-03-01T02:40:49.792Z,11.40
2019-03-01T02:43:22.389Z,11.30
2019-03-01T02:45:54.672Z,11.20
2019-03-01T02:48:27.216Z,11.00
2019-03-01T02:50:59.516Z,11.00
2019-03-01T02:53:32.072Z,11.00
2019-03-01T02:56:04.460Z,10.90
2019-03-01T02:58:36.940Z,10.90
2019-03-01T03:01:09.503Z,10.90
2019-03-01T03:03:41.953Z,10.80
2019-03-01T03:06:23.189Z,10.80
2019-03-01T03:08:55.804Z,10.80
2019-03-01T03:11:28.152Z,10.90
2019-03-01T03:14:00.550Z,10.70
2019-03-01T03:16:33.020Z,10.80
2019-03-01T03:19:05.327Z,10.70
2019-03-01T03:21:38.111Z,10.70
2019-03-01T03:24:10.412Z,10.60
2019-03-01T03:26:42.811Z,10.70
2019-03-01T03:29:15.169Z,10.60
2019-03-01T03:31:47.586Z,10.60
2019-03-01T03:34:20.345Z,10.60
2019-03-01T03:36:52.802Z,10.60
2019-03-01T03:39:25.159Z,10.60
2019-03-01T03:41:57.745Z,10.60
2019-03-01T03:44:30.085Z,10.50
2019-03-01T03:47:02.535Z,10.50
2019-03-01T03:49:35.109Z,10.60
2019-03-01T03:52:07.628Z,10.60
2019-03-01T03:54:40.087Z,10.50
2019-03-01T03:57:12.742Z,10.50
2019-03-01T03:59:45.056Z,10.50
2019-03-01T04:02:17.752Z,10.40
2019-03-01T04:04:50.203Z,10.50
2019-03-01T04:07:22.982Z,10.50
2019-03-01T04:09:55.525Z,10.50
2019-03-01T04:12:27.969Z,10.50
2019-03-01T04:15:00.579Z,10.60
2019-03-01T04:17:32.859Z,10.60
2019-03-01T04:20:06.343Z,10.70
2019-03-01T04:22:38.770Z,10.80
2019-03-01T04:25:11.398Z,10.90
2019-03-01T04:27:44.150Z,11.00
2019-03-01T04:30:18.162Z,11.00
2019-03-01T04:32:50.741Z,11.00
2019-03-01T04:35:22.735Z,11.00
2019-03-01T04:37:55.102Z,11.10
2019-03-01T04:40:27.581Z,11.10
2019-03-01T04:43:00.105Z,11.10
2019-03-01T04:45:32.794Z,11.10
2019-03-01T04:48:05.159Z,11.10
2019-03-01T04:50:37.751Z,11.00
2019-03-01T04:53:10.099Z,11.00
2019-03-01T04:55:43.797Z,11.00
2019-03-01T04:58:16.374Z,11.10
2019-03-01T05:00:48.815Z,11.10
2019-03-01T05:03:21.305Z,11.10
2019-03-01T05:05:53.826Z,11.10
2019-03-01T05:08:26.212Z,11.00
2019-03-01T05:10:58.567Z,11.00
2019-03-01T05:13:30.969Z,11.00
2019-03-01T05:16:03.378Z,11.00
2019-03-01T05:18:35.864Z,11.00
2019-03-01T05:21:08.514Z,11.10
2019-03-01T05:23:40.921Z,11.10
2019-03-01T05:26:13.449Z,11.10
2019-03-01T05:28:45.770Z,11.10
2019-03-01T05:31:18.440Z,11.20
2019-03-01T05:33:50.803Z,11.20
2019-03-01T05:36:23.484Z,11.20
2019-03-01T05:38:55.991Z,11.20
2019-03-01T05:41:28.445Z,11.20
2019-03-01T05:44:00.981Z,11.20
2019-03-01T05:46:33.792Z,11.20
2019-03-01T05:49:06.425Z,11.20
2019-03-01T05:51:39.080Z,11.20
2019-03-01T05:54:11.532Z,11.10
2019-03-01T05:56:43.736Z,11.20
2019-03-01T05:59:19.671Z,11.20
2019-03-01T06:03:02.390Z,11.20
2019-03-01T06:05:40.851Z,11.20
2019-03-01T06:08:54.639Z,11.10
2019-03-01T06:11:41.550Z,11.00
2019-03-01T06:15:18.261Z,11.10
2019-03-01T06:18:39.614Z,11.10
2019-03-01T06:21:56.409Z,11.10
2019-03-01T06:24:53.381Z,11.20
2019-03-01T06:27:50.523Z,11.30
2019-03-01T06:31:26.353Z,11.40
2019-03-01T06:34:27.801Z,11.50
2019-03-01T06:37:58.716Z,11.60
2019-03-01T06:41:30.039Z,11.70
2019-03-01T06:44:58.510Z,12.00
2019-03-01T06:47:43.587Z,12.00
2019-03-01T06:50:31.293Z,12.40
2019-03-01T06:53:03.953Z,12.90
2019-03-01T06:55:51.522Z,13.50
2019-03-01T06:58:30.181Z,13.90
2019-03-01T07:01:20.238Z,14.40
2019-03-01T07:04:11.570Z,14.70
2019-03-01T07:06:44.115Z,14.90
2019-03-01T07:09:16.632Z,15.20
2019-03-01T07:11:49.111Z,15.40
2019-03-01T07:14:21.637Z,15.40
2019-03-01T07:16:53.961Z,15.60
2019-03-01T07:19:26.849Z,16.00
2019-03-01T07:21:59.186Z,16.20
2019-03-01T07:24:31.562Z,16.50
2019-03-01T07:27:03.979Z,16.70
2019-03-01T07:29:36.447Z,16.40
2019-03-01T07:32:08.955Z,16.00
2019-03-01T07:34:41.496Z,15.90
2019-03-01T07:37:14.230Z,16.10
2019-03-01T07:39:46.917Z,16.50
2019-03-01T07:42:19.334Z,17.00
2019-03-01T07:44:51.693Z,17.40
2019-03-01T07:47:24.138Z,17.70
2019-03-01T07:49:57.058Z,17.80
2019-03-01T07:52:29.699Z,18.40
2019-03-01T07:55:02.139Z,19.30
2019-03-01T07:57:34.853Z,19.70
2019-03-01T08:00:10.834Z,20.10
2019-03-01T08:02:45.751Z,19.90
2019-03-01T08:05:18.430Z,19.10
2019-03-01T08:07:56.190Z,19.20
2019-03-01T08:10:25.051Z,20.20
2019-03-01T08:12:57.795Z,20.60
2019-03-01T08:15:30.137Z,20.90
2019-03-01T08:18:04.697Z,21.20
2019-03-01T08:20:36.785Z,21.50
2019-03-01T08:23:09.175Z,21.10
2019-03-01T08:25:41.660Z,20.60
2019-03-01T08:28:14.130Z,19.80
2019-03-01T08:30:46.917Z,18.80
2019-03-01T08:33:19.573Z,18.30
2019-03-01T08:35:52.165Z,18.20
2019-03-01T08:38:25.448Z,18.10
2019-03-01T08:40:58.961Z,17.90
2019-03-01T08:43:31.493Z,17.60
2019-03-01T08:46:14.892Z,17.40
2019-03-01T08:48:47.389Z,17.20
2019-03-01T08:51:22.601Z,16.90
2019-03-01T08:53:54.259Z,16.70
2019-03-01T08:56:26.970Z,16.40
2019-03-01T08:58:59.444Z,16.30
2019-03-01T09:01:31.891Z,16.30
2019-03-01T09:04:09.027Z,16.10
2019-03-01T09:06:41.886Z,16.00
2019-03-01T09:09:17.696Z,16.20
2019-03-01T09:11:48.496Z,16.30
2019-03-01T09:14:22.765Z,16.20
2019-03-01T09:16:55.298Z,16.20
2019-03-01T09:19:27.577Z,16.30
2019-03-01T09:22:00.043Z,16.40
2019-03-01T09:24:32.471Z,16.80
2019-03-01T09:27:05.089Z,17.20
2019-03-01T09:29:41.543Z,17.30
2019-03-01T09:32:11.839Z,17.80
2019-03-01T09:34:46.433Z,18.30
2019-03-01T09:37:18.753Z,19.20
2019-03-01T09:39:53.641Z,20.00
2019-03-01T09:42:25.210Z,20.40
2019-03-01T09:44:57.532Z,20.80
2019-03-01T09:47:30.055Z,21.30
2019-03-01T09:50:02.668Z,21.50
2019-03-01T09:52:36.386Z,21.40
2019-03-01T09:55:09.227Z,21.80
2019-03-01T09:57:41.674Z,21.60
2019-03-01T10:00:15.642Z,20.80
2019-03-01T10:02:48.269Z,20.80
2019-03-01T10:05:20.650Z,21.00
2019-03-01T10:07:53.023Z,21.50
2019-03-01T10:10:28.046Z,22.00
2019-03-01T10:13:00.529Z,22.00
2019-03-01T10:15:33.272Z,21.50
2019-03-01T10:18:06.043Z,21.70
2019-03-01T10:20:38.738Z,21.70
2019-03-01T10:23:11.102Z,21.50
2019-03-01T10:25:43.786Z,21.30
2019-03-01T10:28:16.454Z,20.90
2019-03-01T10:30:48.872Z,21.10
2019-03-01T10:33:21.734Z,20.70
2019-03-01T10:35:54.306Z,20.60
2019-03-01T10:38:26.654Z,20.80
2019-03-01T10:40:59.171Z,20.90
2019-03-01T10:43:31.869Z,20.40
2019-03-01T10:46:04.484Z,19.60
2019-03-01T10:48:37.057Z,19.00
2019-03-01T10:51:09.770Z,19.10
2019-03-01T10:53:42.419Z,19.90
2019-03-01T10:56:15.267Z,20.50
2019-03-01T10:58:47.726Z,20.20
2019-03-01T11:01:20.348Z,19.80
2019-03-01T11:03:52.865Z,19.60
2019-03-01T11:06:25.748Z,19.20
2019-03-01T11:08:58.608Z,19.30
2019-03-01T11:11:31.290Z,19.80
2019-03-01T11:14:03.766Z,20.10
2019-03-01T11:16:36.337Z,19.90
2019-03-01T11:19:08.929Z,19.60
2019-03-01T11:21:41.429Z,19.80
2019-03-01T11:24:13.730Z,20.00
2019-03-01T11:26:46.335Z,20.10
2019-03-01T11:29:18.882Z,20.00
2019-03-01T11:31:51.216Z,20.00
2019-03-01T11:34:23.800Z,19.90
2019-03-01T11:36:56.455Z,19.30
2019-03-01T11:39:29.179Z,18.90
2019-03-01T11:42:01.718Z,18.40
2019-03-01T11:44:35.110Z,18.10
2019-03-01T11:47:07.817Z,18.00
2019-03-01T11:49:40.276Z,17.80
2019-03-01T11:52:13.025Z,17.50
2019-03-01T11:54:45.558Z,17.40
2019-03-01T11:57:18.271Z,17.30
2019-03-01T11:59:50.663Z,17.00
2019-03-01T12:02:23.233Z,16.80
2019-03-01T12:04:55.601Z,16.90
2019-03-01T12:07:28.227Z,17.00
2019-03-01T12:10:00.676Z,16.90
2019-03-01T12:12:33.310Z,16.90
2019-03-01T12:15:06.267Z,17.00
2019-03-01T12:17:38.903Z,16.90
2019-03-01T12:20:14.117Z,16.60
2019-03-01T12:22:46.506Z,16.50
2019-03-01T12:25:19.074Z,16.50
2019-03-01T12:27:51.520Z,16.60
2019-03-01T12:30:24.580Z,16.20
2019-03-01T12:32:57.081Z,16.10
2019-03-01T12:35:29.692Z,16.20
2019-03-01T12:38:02.430Z,16.00
2019-03-01T12:40:34.887Z,15.90
2019-03-01T12:43:07.424Z,15.80
2019-03-01T12:45:39.765Z,15.80
2019-03-01T12:48:12.427Z,15.80
2019-03-01T12:50:44.937Z,15.80
2019-03-01T12:53:17.563Z,15.70
2019-03-01T12:55:49.965Z,15.70
2019-03-01T12:58:22.333Z,15.70
2019-03-01T13:00:54.913Z,15.60
2019-03-01T13:03:27.269Z,15.70
2019-03-01T13:06:00.675Z,15.60
2019-03-01T13:08:33.154Z,15.40
2019-03-01T13:11:06.097Z,15.40
2019-03-01T13:13:39.337Z,15.50
2019-03-01T13:16:11.785Z,15.50
2019-03-01T13:18:47.772Z,15.60
2019-03-01T13:21:19.312Z,15.60
2019-03-01T13:23:51.849Z,15.60
2019-03-01T13:26:24.579Z,15.60
2019-03-01T13:28:57.137Z,15.40
2019-03-01T13:31:29.567Z,15.30
2019-03-01T13:34:02.293Z,15.10
2019-03-01T13:36:36.236Z,15.00
2019-03-01T13:39:11.253Z,15.00
2019-03-01T13:41:43.865Z,15.00
2019-03-01T13:44:16.571Z,15.00
2019-03-01T13:46:49.080Z,14.90
2019-03-01T13:49:21.712Z,14.90
2019-03-01T13:51:54.431Z,14.90
2019-03-01T13:54:26.962Z,15.00
2019-03-01T13:56:59.536Z,14.80
2019-03-01T13:59:32.032Z,14.60
2019-03-01T14:02:07.535Z,14.70
2019-03-01T14:04:40.384Z,14.80
2019-03-01T14:07:13.208Z,14.70
2019-03-01T14:09:45.999Z,14.80
2019-03-01T14:12:18.554Z,14.70
2019-03-01T14:14:51.173Z,14.80
2019-03-01T14:17:24.575Z,14.70
2019-03-01T14:19:57.391Z,14.60
2019-03-01T14:22:30.097Z,14.70
2019-03-01T14:25:05.215Z,14.70
2019-03-01T14:27:37.182Z,14.60
2019-03-01T14:30:13.341Z,14.50
2019-03-01T14:32:45.812Z,14.60
2019-03-01T14:35:20.541Z,14.60
2019-03-01T14:37:55.353Z,14.60
2019-03-01T14:40:26.717Z,14.60
2019-03-01T14:42:59.586Z,14.50
2019-03-01T14:45:32.254Z,14.40
2019-03-01T14:48:08.835Z,14.50
2019-03-01T14:50:39.169Z,14.50
2019-03-01T14:53:12.025Z,14.30
2019-03-01T14:55:49.421Z,14.10
2019-03-01T14:58:34.261Z,13.90
2019-03-01T15:01:42.733Z,14.00
2019-03-01T15:04:15.263Z,14.00
2019-03-01T15:06:51.410Z,14.00
2019-03-01T15:09:23.649Z,13.90
2019-03-01T15:11:55.998Z,13.90
2019-03-01T15:14:28.642Z,13.90
2019-03-01T15:17:01.471Z,14.00
2019-03-01T15:19:33.861Z,13.90
2019-03-01T15:22:06.261Z,13.90
2019-03-01T15:24:38.999Z,13.80
2019-03-01T15:27:11.370Z,13.80
2019-03-01T15:29:43.907Z,13.80
2019-03-01T15:32:16.400Z,13.80
2019-03-01T15:34:48.914Z,13.70
2019-03-01T15:37:21.301Z,13.70
2019-03-01T15:39:54.301Z,13.40
2019-03-01T15:42:27.640Z,13.30
2019-03-01T15:45:01.720Z,13.30
2019-03-01T15:47:34.670Z,13.30
2019-03-01T15:50:08.872Z,13.20
2019-03-01T15:52:41.481Z,13.20
2019-03-01T15:55:14.193Z,13.10
2019-03-01T15:57:46.591Z,13.10
2019-03-01T16:00:19.928Z,13.00
2019-03-01T16:02:53.343Z,13.00
2019-03-01T16:05:26.535Z,13.10
2019-03-01T16:07:59.091Z,12.90
2019-03-01T16:10:32.997Z,12.90
2019-03-01T16:13:08.265Z,12.90
2019-03-01T16:15:39.881Z,12.80
2019-03-01T16:18:12.512Z,13.00
2019-03-01T16:20:47.150Z,12.90
2019-03-01T16:23:19.496Z,12.90
2019-03-01T16:25:53.175Z,12.80
2019-03-01T16:28:27.427Z,12.90
2019-03-01T16:31:00.519Z,12.90
2019-03-01T16:33:32.759Z,12.80
2019-03-01T16:36:09.809Z,12.70
2019-03-01T16:38:47.633Z,12.80
2019-03-01T16:41:16.197Z,12.80
2019-03-01T16:43:48.998Z,12.70
2019-03-01T16:46:21.386Z,12.60
2019-03-01T16:48:53.956Z,12.60
2019-03-01T16:51:26.571Z,12.70
2019-03-01T16:53:59.098Z,12.70
2019-03-01T16:56:34.639Z,12.80
2019-03-01T16:59:07.282Z,12.70
2019-03-01T17:01:40.715Z,12.60
2019-03-01T17:04:13.550Z,12.40
2019-03-01T17:06:49.291Z,12.20
2019-03-01T17:09:20.268Z,12.30
2019-03-01T17:11:52.819Z,12.30
2019-03-01T17:14:25.589Z,12.30
2019-03-01T17:16:59.589Z,12.30
2019-03-01T17:19:32.300Z,12.20
2019-03-01T17:22:04.799Z,12.20
2019-03-01T17:24:37.453Z,12.00
2019-03-01T17:27:09.858Z,12.00
2019-03-01T17:29:42.395Z,11.90
2019-03-01T17:32:14.796Z,11.80
2019-03-01T17:34:47.442Z,11.90
2019-03-01T17:37:19.926Z,11.90
2019-03-01T17:39:53.183Z,11.90
2019-03-01T17:42:27.048Z,11.90
2019-03-01T17:44:59.483Z,11.90
2019-03-01T17:47:32.628Z,11.70
2019-03-01T17:50:08.808Z,11.60
2019-03-01T17:52:39.942Z,11.70
2019-03-01T17:55:12.868Z,11.70
2019-03-01T17:57:45.585Z,11.60
2019-03-01T18:00:25.384Z,11.60
2019-03-01T18:02:57.438Z,11.60
2019-03-01T18:05:30.024Z,11.70
2019-03-01T18:08:03.780Z,11.70
2019-03-01T18:10:38.124Z,11.60
2019-03-01T18:13:11.323Z,11.70
2019-03-01T18:15:45.140Z,11.60
2019-03-01T18:18:17.950Z,11.70
2019-03-01T18:20:50.616Z,11.50
2019-03-01T18:23:23.332Z,11.40
2019-03-01T18:25:59.572Z,11.30
2019-03-01T18:28:31.043Z,11.30
2019-03-01T18:31:03.441Z,11.20
2019-03-01T18:33:35.980Z,11.20
2019-03-01T18:36:08.648Z,11.10
2019-03-01T18:38:41.145Z,11.20
2019-03-01T18:41:13.690Z,11.00
2019-03-01T18:43:49.269Z,10.90
2019-03-01T18:46:21.921Z,10.90
2019-03-01T18:48:54.315Z,11.00
2019-03-01T18:51:26.718Z,10.80
2019-03-01T18:54:00.637Z,10.80
2019-03-01T18:56:33.794Z,10.80
2019-03-01T18:59:06.224Z,10.80
2019-03-01T19:01:38.734Z,10.60
2019-03-01T19:04:13.002Z,10.70
2019-03-01T19:06:48.416Z,10.70
2019-03-01T19:09:19.958Z,10.70
2019-03-01T19:11:52.286Z,10.60
2019-03-01T19:14:24.729Z,10.70
2019-03-01T19:16:57.138Z,10.80
2019-03-01T19:19:30.692Z,10.80
2019-03-01T19:22:03.364Z,10.80
2019-03-01T19:24:42.864Z,10.90
2019-03-01T19:27:15.582Z,11.00
2019-03-01T19:29:44.585Z,11.00
2019-03-01T19:32:17.213Z,10.90
2019-03-01T19:34:52.768Z,10.80
2019-03-01T19:37:24.151Z,10.80
2019-03-01T19:39:56.663Z,10.80
2019-03-01T19:42:33.143Z,10.70
2019-03-01T19:45:04.743Z,10.60
2019-03-01T19:47:38.433Z,10.70
2019-03-01T19:50:14.737Z,10.80
2019-03-01T19:52:50.391Z,10.80
2019-03-01T19:55:21.209Z,10.80
2019-03-01T19:57:54.565Z,10.80
2019-03-01T20:00:27.579Z,10.80
2019-03-01T20:03:00.336Z,10.80
2019-03-01T20:05:33.177Z,10.80
2019-03-01T20:08:06.262Z,10.80
2019-03-01T20:10:38.701Z,10.70
2019-03-01T20:13:16.416Z,10.80
2019-03-01T20:15:49.282Z,10.80
2019-03-01T20:18:22.010Z,10.80
2019-03-01T20:20:55.106Z,10.80
2019-03-01T20:23:29.463Z,10.70
2019-03-01T20:26:01.973Z,10.80
2019-03-01T20:28:36.203Z,10.70
2019-03-01T20:31:08.759Z,10.70
2019-03-01T20:33:41.522Z,10.80
2019-03-01T20:36:17.755Z,10.60
2019-03-01T20:38:48.571Z,10.50
2019-03-01T20:41:21.034Z,10.50
2019-03-01T20:43:53.681Z,10.40
2019-03-01T20:46:26.339Z,10.40
2019-03-01T20:49:00.712Z,10.40
2019-03-01T20:51:33.766Z,10.40
2019-03-01T20:54:06.458Z,10.40
2019-03-01T20:56:38.597Z,10.40
2019-03-01T20:59:12.615Z,10.40
2019-03-01T21:01:45.609Z,10.30
2019-03-01T21:04:18.499Z,10.30
2019-03-01T21:06:51.664Z,10.30
2019-03-01T21:09:24.127Z,10.30
2019-03-01T21:11:57.843Z,10.30
2019-03-01T21:14:31.471Z,10.40
2019-03-01T21:17:04.636Z,10.40
2019-03-01T21:19:37.424Z,10.40
2019-03-01T21:22:10.233Z,10.30
2019-03-01T21:24:43.866Z,10.30
2019-03-01T21:27:16.634Z,10.30
2019-03-01T21:29:50.400Z,10.30
2019-03-01T21:32:23.530Z,10.30
2019-03-01T21:35:16.793Z,10.20
2019-03-01T21:37:49.487Z,10.20
2019-03-01T21:40:22.077Z,10.10
2019-03-01T21:42:57.401Z,10.10
2019-03-01T21:45:28.861Z,10.20
2019-03-01T21:48:01.659Z,10.20
2019-03-01T21:50:34.756Z,10.10
2019-03-01T21:53:09.272Z,10.10
2019-03-01T21:55:42.867Z,10.10
2019-03-01T21:58:15.794Z,10.00
2019-03-01T22:00:49.585Z,10.10
2019-03-01T22:03:24.862Z,10.10
2019-03-01T22:05:56.667Z,10.10
2019-03-01T22:08:29.192Z,10.00
2019-03-01T22:11:01.636Z,10.00
2019-03-01T22:13:35.729Z,9.90
2019-03-01T22:16:09.032Z,10.00
2019-03-01T22:18:41.726Z,10.00
2019-03-01T22:21:16.870Z,10.00
2019-03-01T22:23:51.562Z,10.00
2019-03-01T22:26:23.904Z,10.00
2019-03-01T22:28:56.462Z,10.00
2019-03-01T22:31:28.856Z,10.10
2019-03-01T22:34:01.377Z,10.00
2019-03-01T22:36:33.805Z,10.10
2019-03-01T22:39:07.452Z,10.00
2019-03-01T22:41:40.459Z,10.10
2019-03-01T22:44:13.035Z,10.00
2019-03-01T22:46:45.681Z,10.00
2019-03-01T22:49:18.200Z,10.00
2019-03-01T22:51:52.912Z,10.00
2019-03-01T22:54:25.419Z,10.00
2019-03-01T22:56:57.933Z,10.00
2019-03-01T22:59:30.471Z,10.10
2019-03-01T23:02:08.044Z,10.00
2019-03-01T23:04:40.610Z,10.00
2019-03-01T23:07:13.047Z,10.00
2019-03-01T23:09:46.551Z,10.00
2019-03-01T23:12:20.075Z,10.00
2019-03-01T23:14:52.563Z,10.00
2019-03-01T23:17:27.562Z,10.10
2019-03-01T23:19:59.213Z,10.10
2019-03-01T23:22:50.525Z,10.20
2019-03-01T23:25:23.295Z,10.10
2019-03-01T23:27:56.089Z,10.10
2019-03-01T23:30:29.052Z,10.10
2019-03-01T23:33:02.012Z,10.10
2019-03-01T23:35:34.434Z,10.10
2019-03-01T23:38:06.900Z,10.10
2019-03-01T23:40:39.165Z,10.10
2019-03-01T23:43:11.588Z,10.10
2019-03-01T23:45:44.061Z,10.10
2019-03-01T23:48:16.522Z,10.10
2019-03-01T23:50:48.988Z,10.10
2019-03-01T23:53:21.627Z,10.10
2019-03-01T23:55:54.686Z,10.00
2019-03-01T23:58:28.576Z,9.90
